createdAt,value
2023-06-29T00:01:30.930Z,10.48
2023-06-29T00:03:33.234Z,9.73
2023-06-29T00:05:36.756Z,10.75
2023-06-29T00:07:38.331Z,10.50
2023-06-29T00:09:40.449Z,10.63
2023-06-29T00:11:41.961Z,10.32
2023-06-29T00:13:43.531Z,10.73
2023-06-29T00:15:45.766Z,10.77
2023-06-29T00:17:48.514Z,11.02
2023-06-29T00:19:50.289Z,10.10
2023-06-29T00:21:51.896Z,9.60
2023-06-29T00:23:54.654Z,10.73
2023-06-29T00:25:57.510Z,10.63
2023-06-29T00:27:59.559Z,9.68
2023-06-29T00:30:01.196Z,9.63
2023-06-29T00:32:02.780Z,10.20
2023-06-29T00:34:04.335Z,10.90
2023-06-29T00:36:06.085Z,10.13
2023-06-29T00:38:07.563Z,9.95
2023-06-29T00:40:10.563Z,10.45
2023-06-29T00:42:12.105Z,11.15
2023-06-29T00:44:13.596Z,10.18
2023-06-29T00:46:19.406Z,10.38
2023-06-29T00:48:20.989Z,9.90
2023-06-29T00:50:22.952Z,10.10
2023-06-29T00:52:24.816Z,10.77
2023-06-29T00:54:26.605Z,10.10
2023-06-29T00:56:31.903Z,11.15
2023-06-29T00:58:33.451Z,10.98
2023-06-29T01:00:35.242Z,9.70
2023-06-29T01:02:41.233Z,10.02
2023-06-29T01:04:47.010Z,10.60
2023-06-29T01:06:56.042Z,10.95
2023-06-29T01:09:07.037Z,11.02
2023-06-29T01:11:09.332Z,10.75
2023-06-29T01:13:11.300Z,11.20
2023-06-29T01:15:12.958Z,10.98
2023-06-29T01:17:18.834Z,11.70
2023-06-29T01:19:24.621Z,11.13
2023-06-29T01:21:26.977Z,11.13
2023-06-29T01:23:37.463Z,10.23
2023-06-29T01:25:39.265Z,11.30
2023-06-29T01:27:44.705Z,10.05
2023-06-29T01:29:46.323Z,10.30
2023-06-29T01:31:48.315Z,11.45
2023-06-29T01:33:49.927Z,10.15
2023-06-29T01:36:01.298Z,10.23
2023-06-29T01:38:13.801Z,10.63
2023-06-29T01:40:19.808Z,10.88
2023-06-29T01:42:22.426Z,10.90
2023-06-29T01:44:24.191Z,10.15
2023-06-29T01:46:26.385Z,11.77
2023-06-29T01:48:28.469Z,10.95
2023-06-29T01:50:30.884Z,10.20
2023-06-29T01:52:32.606Z,10.45
2023-06-29T01:54:34.274Z,11.52
2023-06-29T01:56:35.831Z,10.68
2023-06-29T01:58:37.344Z,11.05
2023-06-29T02:00:38.976Z,10.55
2023-06-29T02:02:40.892Z,10.57
2023-06-29T02:04:42.426Z,10.52
2023-06-29T02:06:43.908Z,9.40
2023-06-29T02:08:46.012Z,10.50
2023-06-29T02:10:47.520Z,10.80
2023-06-29T02:12:49.033Z,9.98
2023-06-29T02:14:50.547Z,9.75
2023-06-29T02:16:52.701Z,9.60
2023-06-29T02:18:54.219Z,10.88
2023-06-29T02:20:55.716Z,10.23
2023-06-29T02:22:57.237Z,10.18
2023-06-29T02:24:58.744Z,10.43
2023-06-29T02:27:00.256Z,10.18
2023-06-29T02:29:01.739Z,8.85
2023-06-29T02:31:03.265Z,10.25
2023-06-29T02:33:04.834Z,10.35
2023-06-29T02:35:07.275Z,9.98
2023-06-29T02:37:08.786Z,10.45
2023-06-29T02:39:10.389Z,10.60
2023-06-29T02:41:11.875Z,9.93
2023-06-29T02:43:13.480Z,9.35
2023-06-29T02:45:15.070Z,10.32
2023-06-29T02:47:16.548Z,9.95
2023-06-29T02:49:18.188Z,10.07
2023-06-29T02:51:19.660Z,9.27
2023-06-29T02:53:21.132Z,10.05
2023-06-29T02:55:24.268Z,9.38
2023-06-29T02:57:25.783Z,9.30
2023-06-29T02:59:27.314Z,9.57
2023-06-29T03:01:29.004Z,9.57
2023-06-29T03:03:30.576Z,10.32
2023-06-29T03:05:32.099Z,9.98
2023-06-29T03:07:34.296Z,9.55
2023-06-29T03:09:35.889Z,11.00
2023-06-29T03:11:37.375Z,9.77
2023-06-29T03:13:38.880Z,9.68
2023-06-29T03:15:40.390Z,10.13
2023-06-29T03:17:42.057Z,9.70
2023-06-29T03:19:43.776Z,9.35
2023-06-29T03:21:45.266Z,10.00
2023-06-29T03:23:47.301Z,9.63
2023-06-29T03:25:49.408Z,9.88
2023-06-29T03:27:50.981Z,10.23
2023-06-29T03:29:53.559Z,9.93
2023-06-29T03:31:55.036Z,9.35
2023-06-29T03:33:59.385Z,9.40
2023-06-29T03:36:00.910Z,9.70
2023-06-29T03:38:08.329Z,9.68
2023-06-29T03:40:10.370Z,9.70
2023-06-29T03:42:12.001Z,9.98
2023-06-29T03:44:13.591Z,9.55
2023-06-29T03:46:15.132Z,10.23
2023-06-29T03:48:16.685Z,9.30
2023-06-29T03:50:18.716Z,10.05
2023-06-29T03:52:21.429Z,9.98
2023-06-29T03:54:22.997Z,9.85
2023-06-29T03:56:24.594Z,10.25
2023-06-29T03:58:26.203Z,9.50
2023-06-29T04:00:27.856Z,10.45
2023-06-29T04:02:29.650Z,9.68
2023-06-29T04:04:31.299Z,9.32
2023-06-29T04:06:32.857Z,10.48
2023-06-29T04:08:34.645Z,9.68
2023-06-29T04:10:36.454Z,10.15
2023-06-29T04:12:38.017Z,9.10
2023-06-29T04:14:39.580Z,9.02
2023-06-29T04:16:41.159Z,9.35
2023-06-29T04:18:42.735Z,9.48
2023-06-29T04:20:44.241Z,10.38
2023-06-29T04:22:45.743Z,9.57
2023-06-29T04:24:47.338Z,9.02
2023-06-29T04:26:48.842Z,9.40
2023-06-29T04:28:50.395Z,9.10
2023-06-29T04:30:51.954Z,9.15
2023-06-29T04:32:53.621Z,9.18
2023-06-29T04:34:55.293Z,9.52
2023-06-29T04:36:57.696Z,9.93
2023-06-29T04:38:59.994Z,8.90
2023-06-29T04:41:05.141Z,10.40
2023-06-29T04:43:09.883Z,9.98
2023-06-29T04:45:13.754Z,10.00
2023-06-29T04:47:15.457Z,10.00
2023-06-29T04:49:16.966Z,9.73
2023-06-29T04:51:19.657Z,10.75
2023-06-29T04:53:21.241Z,10.40
2023-06-29T04:55:23.926Z,10.75
2023-06-29T04:57:27.424Z,10.07
2023-06-29T04:59:30.996Z,10.02
2023-06-29T05:01:32.519Z,9.45
2023-06-29T05:03:34.412Z,9.77
2023-06-29T05:05:35.919Z,9.52
2023-06-29T05:07:39.105Z,9.95
2023-06-29T05:09:40.890Z,9.57
2023-06-29T05:11:42.849Z,9.32
2023-06-29T05:13:44.354Z,9.68
2023-06-29T05:15:48.931Z,9.65
2023-06-29T05:17:50.549Z,10.27
2023-06-29T05:19:52.128Z,9.40
2023-06-29T05:21:53.733Z,10.30
2023-06-29T05:23:55.697Z,9.75
2023-06-29T05:25:57.280Z,9.82
2023-06-29T05:27:58.806Z,9.73
2023-06-29T05:30:00.371Z,10.13
2023-06-29T05:32:01.964Z,10.23
2023-06-29T05:34:03.448Z,9.68
2023-06-29T05:36:05.128Z,10.73
2023-06-29T05:38:06.724Z,10.93
2023-06-29T05:40:09.518Z,10.15
2023-06-29T05:42:11.095Z,10.55
2023-06-29T05:44:12.603Z,9.73
2023-06-29T05:46:14.122Z,9.85
2023-06-29T05:48:15.788Z,10.63
2023-06-29T05:50:17.507Z,10.38
2023-06-29T05:52:19.025Z,10.02
2023-06-29T05:54:20.548Z,10.48
2023-06-29T05:56:22.037Z,10.57
2023-06-29T05:58:25.115Z,9.50
2023-06-29T06:00:26.857Z,10.60
2023-06-29T06:02:28.525Z,10.40
2023-06-29T06:04:30.068Z,10.40
2023-06-29T06:06:31.927Z,10.57
2023-06-29T06:08:34.151Z,10.45
2023-06-29T06:10:36.018Z,10.60
2023-06-29T06:12:37.564Z,11.32
2023-06-29T06:14:39.298Z,9.95
2023-06-29T06:16:40.940Z,9.95
2023-06-29T06:18:42.486Z,10.75
2023-06-29T06:20:44.176Z,10.43
2023-06-29T06:22:45.812Z,11.25
2023-06-29T06:24:47.327Z,10.25
2023-06-29T06:26:48.824Z,11.68
2023-06-29T06:28:52.138Z,10.70
2023-06-29T06:30:55.037Z,10.77
2023-06-29T06:32:56.730Z,10.30
2023-06-29T06:34:58.484Z,11.20
2023-06-29T06:37:00.061Z,9.68
2023-06-29T06:39:01.598Z,10.18
2023-06-29T06:41:03.133Z,10.23
2023-06-29T06:43:04.969Z,9.90
2023-06-29T06:45:07.533Z,10.38
2023-06-29T06:47:09.075Z,10.77
2023-06-29T06:49:10.559Z,10.98
2023-06-29T06:51:12.049Z,9.65
2023-06-29T06:53:13.639Z,10.45
2023-06-29T06:55:15.183Z,10.55
2023-06-29T06:57:16.713Z,10.93
2023-06-29T06:59:18.211Z,10.55
2023-06-29T07:01:23.564Z,10.27
2023-06-29T07:03:27.195Z,10.05
2023-06-29T07:05:28.814Z,11.27
2023-06-29T07:07:30.394Z,10.85
2023-06-29T07:09:31.966Z,11.43
2023-06-29T07:11:33.550Z,11.98
2023-06-29T07:13:35.035Z,11.20
2023-06-29T07:15:36.566Z,10.88
2023-06-29T07:17:38.083Z,10.73
2023-06-29T07:24:08.082Z,10.43
2023-06-29T07:26:10.162Z,11.00
2023-06-29T07:28:11.680Z,10.95
2023-06-29T07:30:13.778Z,10.63
2023-06-29T07:32:15.290Z,10.90
2023-06-29T07:34:16.880Z,11.35
2023-06-29T07:36:18.396Z,12.10
2023-06-29T07:38:19.963Z,11.73
2023-06-29T07:40:21.491Z,10.73
2023-06-29T07:42:38.142Z,12.20
2023-06-29T07:44:41.376Z,11.18
2023-06-29T07:46:42.855Z,10.38
2023-06-29T07:48:44.428Z,10.48
2023-06-29T07:50:46.029Z,10.98
2023-06-29T07:52:47.879Z,11.10
2023-06-29T07:54:50.538Z,10.68
2023-06-29T07:58:56.496Z,10.85
2023-06-29T08:00:58.260Z,11.40
2023-06-29T08:02:59.809Z,11.30
2023-06-29T08:07:10.069Z,10.98
2023-06-29T08:09:12.357Z,12.45
2023-06-29T08:11:15.196Z,10.77
2023-06-29T08:13:17.306Z,11.63
2023-06-29T08:15:18.817Z,11.60
2023-06-29T08:17:20.535Z,11.57
2023-06-29T08:19:22.319Z,11.88
2023-06-29T08:21:23.952Z,11.35
2023-06-29T08:23:25.509Z,11.30
2023-06-29T08:25:27.062Z,11.70
2023-06-29T08:27:28.553Z,12.30
2023-06-29T08:29:30.035Z,11.80
2023-06-29T08:31:31.632Z,11.70
2023-06-29T08:33:33.249Z,11.43
2023-06-29T08:35:34.939Z,11.07
2023-06-29T08:37:36.526Z,10.73
2023-06-29T08:39:39.614Z,9.98
2023-06-29T08:41:41.097Z,9.75
2023-06-29T08:43:43.102Z,10.05
2023-06-29T08:45:46.276Z,9.27
2023-06-29T08:47:53.026Z,9.35
2023-06-29T08:49:58.016Z,9.02
2023-06-29T08:52:00.810Z,9.20
2023-06-29T08:54:02.991Z,9.50
2023-06-29T08:56:04.967Z,10.65
2023-06-29T08:58:07.013Z,9.52
2023-06-29T09:00:09.832Z,9.70
2023-06-29T09:02:11.837Z,9.77
2023-06-29T09:04:13.545Z,9.57
2023-06-29T09:06:16.244Z,10.07
2023-06-29T09:08:18.469Z,9.65
2023-06-29T09:10:20.054Z,9.93
2023-06-29T09:12:21.595Z,9.95
2023-06-29T09:14:23.870Z,11.32
2023-06-29T09:16:30.078Z,12.05
2023-06-29T09:18:33.675Z,11.35
2023-06-29T09:20:36.187Z,11.25
2023-06-29T09:22:40.444Z,10.80
2023-06-29T09:24:57.367Z,11.85
2023-06-29T09:27:03.996Z,11.52
2023-06-29T09:29:05.605Z,12.07
2023-06-29T09:31:09.792Z,11.27
2023-06-29T09:33:12.849Z,11.70
2023-06-29T09:35:14.461Z,11.88
2023-06-29T09:37:17.243Z,11.02
2023-06-29T09:39:19.702Z,10.80
2023-06-29T09:41:21.241Z,12.57
2023-06-29T09:43:27.609Z,11.45
2023-06-29T09:45:31.699Z,10.93
2023-06-29T09:49:51.443Z,10.82
2023-06-29T09:52:04.067Z,10.65
2023-06-29T09:54:05.770Z,10.27
2023-06-29T09:56:07.906Z,10.25
2023-06-29T09:58:09.677Z,10.02
2023-06-29T10:00:12.833Z,9.95
2023-06-29T10:02:15.141Z,9.45
2023-06-29T10:04:16.661Z,9.88
2023-06-29T10:06:22.836Z,10.45
2023-06-29T10:08:28.272Z,9.73
2023-06-29T10:10:34.372Z,9.48
2023-06-29T10:12:35.945Z,9.15
2023-06-29T10:14:43.193Z,10.18
2023-06-29T10:16:50.183Z,10.13
2023-06-29T10:18:55.437Z,10.60
2023-06-29T10:20:57.410Z,10.25
2023-06-29T10:23:02.274Z,9.70
2023-06-29T10:25:08.966Z,9.90
2023-06-29T10:27:11.616Z,10.82
2023-06-29T10:29:13.213Z,11.63
2023-06-29T10:31:20.144Z,10.32
2023-06-29T10:33:23.379Z,10.57
2023-06-29T10:35:27.124Z,10.05
2023-06-29T10:37:32.819Z,10.25
2023-06-29T10:39:45.277Z,9.98
2023-06-29T10:41:48.733Z,11.10
2023-06-29T10:44:01.520Z,9.90
2023-06-29T10:46:03.204Z,11.57
2023-06-29T10:48:07.050Z,10.60
2023-06-29T10:50:29.532Z,11.93
2023-06-29T10:52:33.180Z,11.70
2023-06-29T10:54:34.871Z,11.20
2023-06-29T10:56:36.398Z,11.88
2023-06-29T10:58:38.778Z,11.32
2023-06-29T11:00:41.107Z,11.02
2023-06-29T11:02:43.217Z,11.05
2023-06-29T11:04:45.120Z,11.48
2023-06-29T11:06:46.737Z,11.00
2023-06-29T11:08:48.902Z,10.75
2023-06-29T11:10:54.255Z,11.82
2023-06-29T11:12:56.259Z,12.30
2023-06-29T11:15:18.251Z,12.27
2023-06-29T11:17:20.206Z,12.82
2023-06-29T11:19:27.181Z,12.50
2023-06-29T11:21:28.767Z,13.20
2023-06-29T11:23:30.331Z,11.85
2023-06-29T11:25:31.951Z,13.73
2023-06-29T11:27:33.676Z,12.77
2023-06-29T11:29:35.333Z,11.60
2023-06-29T11:31:37.079Z,12.48
2023-06-29T11:33:50.784Z,12.45
2023-06-29T11:35:52.344Z,13.30
2023-06-29T11:38:01.744Z,12.52
2023-06-29T11:40:08.966Z,12.48
2023-06-29T11:42:10.820Z,12.55
2023-06-29T11:44:15.040Z,12.68
2023-06-29T11:46:18.646Z,14.18
2023-06-29T11:48:20.589Z,13.90
2023-06-29T11:50:23.982Z,13.77
2023-06-29T11:52:26.134Z,12.85
2023-06-29T11:54:30.744Z,13.00
2023-06-29T11:56:39.837Z,13.55
2023-06-29T11:58:44.214Z,13.43
2023-06-29T12:00:45.802Z,13.75
2023-06-29T12:02:47.727Z,13.18
2023-06-29T12:04:56.519Z,13.55
2023-06-29T12:06:58.963Z,12.43
2023-06-29T12:09:00.640Z,13.52
2023-06-29T12:11:04.692Z,13.20
2023-06-29T12:13:09.930Z,12.73
2023-06-29T12:15:16.375Z,13.52
2023-06-29T12:19:51.460Z,13.27
2023-06-29T12:22:12.518Z,14.82
2023-06-29T12:24:17.762Z,14.68
2023-06-29T12:26:20.481Z,14.05
2023-06-29T12:28:22.999Z,14.48
2023-06-29T12:30:24.608Z,14.88
2023-06-29T12:32:26.123Z,13.63
2023-06-29T12:34:30.013Z,13.65
2023-06-29T12:36:31.568Z,13.57
2023-06-29T12:38:33.054Z,13.90
2023-06-29T12:40:35.020Z,13.55
2023-06-29T12:42:38.709Z,13.75
2023-06-29T12:44:40.552Z,13.98
2023-06-29T12:46:42.090Z,12.82
2023-06-29T12:48:46.670Z,14.13
2023-06-29T12:50:48.561Z,13.02
2023-06-29T12:52:50.402Z,13.80
2023-06-29T12:54:53.423Z,12.68
2023-06-29T12:56:55.011Z,12.38
2023-06-29T12:58:56.552Z,12.98
2023-06-29T13:00:58.202Z,13.30
2023-06-29T13:03:00.219Z,12.32
2023-06-29T13:05:02.466Z,12.55
2023-06-29T13:07:04.156Z,12.48
2023-06-29T13:09:05.761Z,11.30
2023-06-29T13:11:07.553Z,11.52
2023-06-29T13:13:09.139Z,11.75
2023-06-29T13:15:11.336Z,11.70
2023-06-29T13:17:13.290Z,11.75
2023-06-29T13:19:14.958Z,12.45
2023-06-29T13:21:17.096Z,11.13
2023-06-29T13:23:18.723Z,10.93
2023-06-29T13:25:22.282Z,10.85
2023-06-29T13:27:23.784Z,10.52
2023-06-29T13:29:25.645Z,10.50
2023-06-29T13:31:27.390Z,10.95
2023-06-29T13:33:29.017Z,11.25
2023-06-29T13:35:30.566Z,10.80
2023-06-29T13:37:32.154Z,9.95
2023-06-29T13:39:34.266Z,10.40
2023-06-29T13:41:37.125Z,11.18
2023-06-29T13:43:38.645Z,9.57
2023-06-29T13:45:40.217Z,9.57
2023-06-29T13:47:43.876Z,11.35
2023-06-29T13:49:45.994Z,11.07
2023-06-29T13:51:49.401Z,10.90
2023-06-29T13:53:51.310Z,10.77
2023-06-29T13:55:52.836Z,11.38
2023-06-29T13:57:54.362Z,10.93
2023-06-29T13:59:55.886Z,10.77
2023-06-29T14:01:57.722Z,11.07
2023-06-29T14:04:02.066Z,10.65
2023-06-29T14:06:03.927Z,10.48
2023-06-29T14:08:05.782Z,10.48
2023-06-29T14:10:07.788Z,10.55
2023-06-29T14:12:09.640Z,10.43
2023-06-29T14:14:11.321Z,11.40
2023-06-29T14:16:12.886Z,10.57
2023-06-29T14:18:14.593Z,10.82
2023-06-29T14:20:16.271Z,11.32
2023-06-29T14:22:17.798Z,11.05
2023-06-29T14:24:19.441Z,12.43
2023-06-29T14:26:22.171Z,11.88
2023-06-29T14:28:23.714Z,12.93
2023-06-29T14:30:25.237Z,12.10
2023-06-29T14:32:26.896Z,13.05
2023-06-29T14:34:28.503Z,12.82
2023-06-29T14:36:30.084Z,12.35
2023-06-29T14:38:32.016Z,13.40
2023-06-29T14:40:33.554Z,12.63
2023-06-29T14:42:35.166Z,13.38
2023-06-29T14:44:36.889Z,13.15
2023-06-29T14:46:38.550Z,14.32
2023-06-29T14:48:40.056Z,14.73
2023-06-29T14:50:41.605Z,13.88
2023-06-29T14:52:43.128Z,13.85
2023-06-29T14:54:44.639Z,15.07
2023-06-29T14:56:46.291Z,14.45
2023-06-29T14:58:47.860Z,15.00
2023-06-29T15:00:49.552Z,14.85
2023-06-29T15:02:51.166Z,15.02
2023-06-29T15:04:53.145Z,15.75
2023-06-29T15:06:54.781Z,15.00
2023-06-29T15:08:56.554Z,15.77
2023-06-29T15:10:58.098Z,15.73
2023-06-29T15:12:59.677Z,14.90
2023-06-29T15:15:02.845Z,14.27
2023-06-29T15:17:04.681Z,15.40
2023-06-29T15:19:06.233Z,14.90
2023-06-29T15:21:07.841Z,15.15
2023-06-29T15:23:09.483Z,13.80
2023-06-29T15:25:11.318Z,14.38
2023-06-29T15:27:12.856Z,13.57
2023-06-29T15:29:14.363Z,14.40
2023-06-29T15:31:16.194Z,13.98
2023-06-29T15:33:18.750Z,14.57
2023-06-29T15:35:20.379Z,13.95
2023-06-29T15:37:22.129Z,14.07
2023-06-29T15:39:23.731Z,13.57
2023-06-29T15:41:25.353Z,12.88
2023-06-29T15:43:27.536Z,12.88
2023-06-29T15:45:29.204Z,12.90
2023-06-29T15:47:30.887Z,11.40
2023-06-29T15:49:32.549Z,12.65
2023-06-29T15:51:34.075Z,11.80
2023-06-29T15:53:35.589Z,11.70
2023-06-29T15:55:37.140Z,12.25
2023-06-29T15:57:38.683Z,12.00
2023-06-29T15:59:40.224Z,11.88
2023-06-29T16:01:41.762Z,10.98
2023-06-29T16:03:43.494Z,10.85
2023-06-29T16:05:45.632Z,11.27
2023-06-29T16:07:47.917Z,12.13
2023-06-29T16:09:49.515Z,12.30
2023-06-29T16:11:51.082Z,12.52
2023-06-29T16:13:52.695Z,12.60
2023-06-29T16:15:54.260Z,12.15
2023-06-29T16:17:55.778Z,12.68
2023-06-29T16:19:57.692Z,12.20
2023-06-29T16:21:59.217Z,12.30
2023-06-29T16:24:00.703Z,11.80
2023-06-29T16:26:02.255Z,12.50
2023-06-29T16:28:03.876Z,12.27
2023-06-29T16:30:06.331Z,12.05
2023-06-29T16:32:08.325Z,12.60
2023-06-29T16:34:10.004Z,13.45
2023-06-29T16:36:11.676Z,13.13
2023-06-29T16:38:13.218Z,13.52
2023-06-29T16:40:14.811Z,13.60
2023-06-29T16:42:16.450Z,13.35
2023-06-29T16:44:18.002Z,12.88
2023-06-29T16:46:19.545Z,13.55
2023-06-29T16:48:21.071Z,13.65
2023-06-29T16:50:23.429Z,12.77
2023-06-29T16:52:24.932Z,13.75
2023-06-29T16:54:26.498Z,13.13
2023-06-29T16:56:29.550Z,13.65
2023-06-29T16:58:31.140Z,13.50
2023-06-29T17:00:32.685Z,14.52
2023-06-29T17:02:34.302Z,13.82
2023-06-29T17:04:35.858Z,13.52
2023-06-29T17:06:37.398Z,13.45
2023-06-29T17:08:40.975Z,13.38
2023-06-29T17:10:42.651Z,13.50
2023-06-29T17:12:44.316Z,14.45
2023-06-29T17:14:45.889Z,13.90
2023-06-29T17:16:47.564Z,13.25
2023-06-29T17:18:49.159Z,13.38
2023-06-29T17:20:50.779Z,13.45
2023-06-29T17:22:52.498Z,13.88
2023-06-29T17:24:54.582Z,14.30
2023-06-29T17:26:56.255Z,13.40
2023-06-29T17:28:58.256Z,13.45
2023-06-29T17:30:59.985Z,14.23
2023-06-29T17:33:01.531Z,13.80
2023-06-29T17:35:03.524Z,13.00
2023-06-29T17:37:05.341Z,13.98
2023-06-29T17:39:06.829Z,14.02
2023-06-29T17:41:09.686Z,12.63
2023-06-29T17:43:11.914Z,13.45
2023-06-29T17:45:13.474Z,14.07
2023-06-29T17:47:15.201Z,13.38
2023-06-29T17:49:16.714Z,14.13
2023-06-29T17:51:19.977Z,14.00
2023-06-29T17:53:21.821Z,14.82
2023-06-29T17:55:23.382Z,13.85
2023-06-29T17:57:24.877Z,14.50
2023-06-29T17:59:26.507Z,14.50
2023-06-29T18:01:28.161Z,13.90
2023-06-29T18:03:29.982Z,14.63
2023-06-29T18:05:31.603Z,13.82
2023-06-29T18:07:33.278Z,14.05
2023-06-29T18:09:34.819Z,13.75
2023-06-29T18:11:36.364Z,13.95
2023-06-29T18:13:37.935Z,14.85
2023-06-29T18:15:39.645Z,14.93
2023-06-29T18:17:41.182Z,14.88
2023-06-29T18:19:42.724Z,14.55
2023-06-29T18:21:45.919Z,15.13
2023-06-29T18:23:47.444Z,15.63
2023-06-29T18:25:49.016Z,16.27
2023-06-29T18:27:50.626Z,15.52
2023-06-29T18:29:52.417Z,15.68
2023-06-29T18:31:54.431Z,15.95
2023-06-29T18:33:57.154Z,16.45
2023-06-29T18:35:58.726Z,15.82
2023-06-29T18:38:00.538Z,16.15
2023-06-29T18:40:02.067Z,15.90
2023-06-29T18:42:03.762Z,15.18
2023-06-29T18:44:06.078Z,16.00
2023-06-29T18:46:07.706Z,15.07
2023-06-29T18:48:09.398Z,15.32
2023-06-29T18:50:11.372Z,16.60
2023-06-29T18:52:13.313Z,17.50
2023-06-29T18:54:14.818Z,15.75
2023-06-29T18:56:16.360Z,16.88
2023-06-29T18:58:17.843Z,15.80
2023-06-29T19:00:19.465Z,16.38
2023-06-29T19:02:20.963Z,16.38
2023-06-29T19:04:22.438Z,16.52
2023-06-29T19:06:24.260Z,15.40
2023-06-29T19:08:26.195Z,14.55
2023-06-29T19:10:30.097Z,15.20
2023-06-29T19:12:31.993Z,16.20
2023-06-29T19:14:33.650Z,15.90
2023-06-29T19:16:35.897Z,16.17
2023-06-29T19:18:37.464Z,16.58
2023-06-29T19:20:38.993Z,16.10
2023-06-29T19:22:40.562Z,16.42
2023-06-29T19:24:42.156Z,16.42
2023-06-29T19:26:43.849Z,17.08
2023-06-29T19:28:45.566Z,17.50
2023-06-29T19:30:47.233Z,17.48
2023-06-29T19:32:48.786Z,17.90
2023-06-29T19:34:51.515Z,17.75
2023-06-29T19:36:53.135Z,18.05
2023-06-29T19:38:54.650Z,17.23
2023-06-29T19:40:56.600Z,17.48
2023-06-29T19:42:58.714Z,17.55
2023-06-29T19:45:00.289Z,17.38
2023-06-29T19:47:01.934Z,18.25
2023-06-29T19:49:03.887Z,18.52
2023-06-29T19:51:05.571Z,18.45
2023-06-29T19:53:07.407Z,18.73
2023-06-29T19:55:10.915Z,18.58
2023-06-29T19:57:13.293Z,18.13
2023-06-29T19:59:14.982Z,18.35
2023-06-29T20:01:16.617Z,17.90
2023-06-29T20:03:19.383Z,18.50
2023-06-29T20:05:21.613Z,18.83
2023-06-29T20:07:23.343Z,19.30
2023-06-29T20:09:25.149Z,18.88
2023-06-29T20:11:28.763Z,19.65
2023-06-29T20:13:30.316Z,18.95
2023-06-29T20:15:32.014Z,19.23
2023-06-29T20:17:35.682Z,18.40
2023-06-29T20:19:37.297Z,19.60
2023-06-29T20:21:38.829Z,19.98
2023-06-29T20:23:40.321Z,20.10
2023-06-29T20:25:41.843Z,19.45
2023-06-29T20:27:44.907Z,19.23
2023-06-29T20:29:49.750Z,19.77
2023-06-29T20:31:51.397Z,18.35
2023-06-29T20:33:53.366Z,19.70
2023-06-29T20:35:54.962Z,19.13
2023-06-29T20:37:56.468Z,19.15
2023-06-29T20:39:57.973Z,20.27
2023-06-29T20:41:59.903Z,19.92
2023-06-29T20:44:01.441Z,20.15
2023-06-29T20:46:03.058Z,20.38
2023-06-29T20:48:05.164Z,20.77
2023-06-29T20:50:07.314Z,21.20
2023-06-29T20:52:08.841Z,20.75
2023-06-29T20:54:10.427Z,21.33
2023-06-29T20:56:11.954Z,20.67
2023-06-29T20:58:13.585Z,21.63
2023-06-29T21:00:15.637Z,20.38
2023-06-29T21:02:18.587Z,21.67
2023-06-29T21:04:20.377Z,21.10
2023-06-29T21:06:22.135Z,20.80
2023-06-29T21:08:23.627Z,22.13
2023-06-29T21:10:25.196Z,21.35
2023-06-29T21:12:27.301Z,22.55
2023-06-29T21:14:28.993Z,22.20
2023-06-29T21:16:31.036Z,22.33
2023-06-29T21:18:32.918Z,23.58
2023-06-29T21:20:35.743Z,23.67
2023-06-29T21:22:37.774Z,22.67
2023-06-29T21:24:39.604Z,21.77
2023-06-29T21:26:41.234Z,22.60
2023-06-29T21:28:43.521Z,23.50
2023-06-29T21:30:45.315Z,22.58
2023-06-29T21:32:47.196Z,23.35
2023-06-29T21:34:48.969Z,22.25
2023-06-29T21:36:50.679Z,21.15
2023-06-29T21:38:52.319Z,23.23
2023-06-29T21:40:53.893Z,22.00
2023-06-29T21:42:55.473Z,22.02
2023-06-29T21:44:56.973Z,22.25
2023-06-29T21:47:01.297Z,22.25
2023-06-29T21:49:02.992Z,21.25
2023-06-29T21:51:04.493Z,21.95
2023-06-29T21:53:05.986Z,22.17
2023-06-29T21:55:07.922Z,22.15
2023-06-29T21:57:09.458Z,21.13
2023-06-29T21:59:11.008Z,21.98
2023-06-29T22:01:12.631Z,20.73
2023-06-29T22:03:14.279Z,21.30
2023-06-29T22:05:16.087Z,20.10
2023-06-29T22:07:17.772Z,21.13
2023-06-29T22:09:19.716Z,18.63
2023-06-29T22:11:22.172Z,18.38
2023-06-29T22:13:24.372Z,14.15
2023-06-29T22:15:25.891Z,14.43
2023-06-29T22:17:27.935Z,12.98
2023-06-29T22:19:29.686Z,13.45
2023-06-29T22:21:31.480Z,12.02
2023-06-29T22:23:33.274Z,10.77
2023-06-29T22:25:34.775Z,10.63
2023-06-29T22:27:37.138Z,4.93
2023-06-29T22:29:38.646Z,4.40
2023-06-29T22:31:40.182Z,3.45
2023-06-29T22:33:41.711Z,3.60
2023-06-29T22:35:43.511Z,2.90
2023-06-29T22:37:45.304Z,3.10
2023-06-29T22:39:49.662Z,2.50
2023-06-29T22:41:51.170Z,2.65
2023-06-29T22:43:58.449Z,2.40
2023-06-29T22:46:00.086Z,2.25
2023-06-29T22:48:03.261Z,1.55
2023-06-29T22:50:05.717Z,1.95
2023-06-29T22:52:07.441Z,2.38
2023-06-29T22:54:10.075Z,2.70
2023-06-29T22:56:11.643Z,3.13
2023-06-29T22:58:20.905Z,3.38
2023-06-29T23:00:22.928Z,3.80
2023-06-29T23:02:24.531Z,5.53
2023-06-29T23:04:26.111Z,6.22
2023-06-29T23:06:29.298Z,8.48
2023-06-29T23:08:31.105Z,9.23
2023-06-29T23:10:32.580Z,10.18
2023-06-29T23:12:34.063Z,15.30
2023-06-29T23:14:36.317Z,18.92
2023-06-29T23:16:37.851Z,30.42
2023-06-29T23:18:39.598Z,32.40
2023-06-29T23:20:47.660Z,36.13
2023-06-29T23:22:49.273Z,36.33
2023-06-29T23:24:53.788Z,33.90
2023-06-29T23:26:55.666Z,33.30
2023-06-29T23:28:57.141Z,32.20
2023-06-29T23:30:58.795Z,30.70
2023-06-29T23:33:00.402Z,28.25
2023-06-29T23:35:01.935Z,28.80
2023-06-29T23:37:03.542Z,27.95
2023-06-29T23:39:06.741Z,27.02
2023-06-29T23:41:08.355Z,26.10
2023-06-29T23:43:09.977Z,25.40
2023-06-29T23:45:12.511Z,22.77
2023-06-29T23:47:14.255Z,21.60
2023-06-29T23:49:18.143Z,19.60
2023-06-29T23:51:19.684Z,16.02
2023-06-29T23:53:21.172Z,15.70
2023-06-29T23:55:23.344Z,14.50
2023-06-29T23:57:24.874Z,13.43
2023-06-29T23:59:26.424Z,12.10
